Data for 07/30/2018

Time Sea-Level Adjusted Pressure Absolute Pressure Temperature Relative Humidity Dew Point   
(mb) (inHg) (mb) (inHg) (C) (F) (%) (C) (F)
00:05 1027 30.33 856 25.28 16.1 60.9 48 5.2 41.3
00:10 1027 30.33 856 25.28 15.9 60.7 48 4.9 40.8
00:15 1027 30.33 856 25.28 15.7 60.3 48 4.9 40.8
00:20 1027 30.33 856 25.28 15.6 60 49 5.1 41.2
00:25 1027 30.33 856 25.28 15.4 59.6 49 4.8 40.7
00:30 1027 30.33 856 25.28 15.5 59.9 49 4.8 40.6
00:35 1027 30.33 856 25.28 15.5 60 48 4.7 40.5
00:40 1027 30.33 856 25.28 15.7 60.2 47 4.6 40.3
00:45 1027 30.33 856 25.28 15.8 60.4 47 4.7 40.4
00:50 1027 30.33 856 25.28 16.1 61 46 4.6 40.3
00:55 1027 30.33 856 25.28 16.2 61.1 46 4.7 40.4
01:00 1027 30.33 856 25.28 16.1 60.9 46 4.7 40.5
01:05 1027 30.33 856 25.28 15.9 60.6 47 4.8 40.6
01:10 1027 30.33 856 25.28 15.8 60.4 47 4.7 40.5
01:15 1027 30.33 856 25.28 15.7 60.3 48 4.8 40.7
01:20 1027 30.33 856 25.28 15.3 59.5 51 5.2 41.4
01:25 1027 30.33 856 25.28 15 58.9 49 4.4 39.9
01:30 1027 30.33 856 25.28 15.5 59.8 48 4.5 40.2
01:35 1027 30.33 856 25.28 15.5 59.8 48 4.6 40.3
01:40 1027 30.33 856 25.28 15.4 59.7 48 4.6 40.2
01:45 1027 30.33 856 25.28 15.3 59.5 48 4.6 40.2
01:50 1027 30.33 856 25.28 15 59 50 4.8 40.6
01:55 1027 30.33 856 25.28 14.2 57.6 52 4.6 40.2
02:00 1027 30.33 856 25.28 13.8 56.9 53 4.5 40.1
02:05 1027 30.33 856 25.28 13.7 56.7 53 4.5 40.1
02:10 1027 30.33 856 25.28 13.7 56.7 54 4.5 40.2
02:15 1027 30.33 856 25.28 13.8 56.8 54 4.6 40.3
02:20 1027 30.33 856 25.28 13.6 56.5 54 4.7 40.4
02:25 1027 30.33 856 25.28 13.4 56.2 55 4.6 40.3
02:30 1027 30.33 856 25.28 13.3 56 55 4.5 40.2
02:35 1027 30.33 856 25.28 13.4 56.1 54 4.4 40
02:40 1027 30.33 856 25.28 13.5 56.2 54 4.5 40.1
02:45 1027 30.33 856 25.28 13.3 56 55 4.5 40
02:50 1027 30.33 856 25.28 13.2 55.8 54 4.3 39.8
02:55 1027 30.33 856 25.28 13.3 55.9 54 4.2 39.5
03:00 1027 30.33 856 25.28 13.2 55.8 54 4.2 39.5
03:05 1027 30.33 856 25.28 13.2 55.7 54 4.2 39.5
03:10 1027 30.33 856 25.28 13.1 55.7 53 3.9 39.1
03:15 1027 30.33 856 25.28 13.1 55.6 53 3.7 38.7
03:20 1027 30.33 856 25.28 13.1 55.6 53 3.8 38.9
03:25 1027 30.33 856 25.28 12.9 55.3 52 3.4 38.1
03:30 1027 30.33 856 25.28 13 55.3 52 3.4 38
03:35 1027 30.33 856 25.28 13 55.4 50 2.9 37.3
03:40 1027 30.33 856 25.28 12.8 55 52 3.1 37.7
03:45 1027 30.33 856 25.28 12.6 54.7 51 2.9 37.3
03:50 1027 30.33 856 25.28 12.3 54.2 52 2.8 37.1
03:55 1027 30.33 856 25.28 12.4 54.4 51 2.7 36.9
04:00 1027 30.33 856 25.28 12.5 54.6 51 2.8 37.1
04:05 1027 30.33 856 25.28 12.5 54.5 51 2.6 36.7
04:10 1027 30.33 856 25.28 12.7 54.8 51 2.9 37.3
04:15 1027 30.33 856 25.28 12.9 55.2 51 3.1 37.6
04:20 1027 30.33 856 25.28 13.1 55.5 51 3.3 37.9
04:25 1027 30.33 856 25.28 13.1 55.5 51 3.3 38
04:30 1027 30.33 856 25.28 13.1 55.7 51 3.3 37.9
04:35 1027 30.33 856 25.28 12.9 55.3 52 3.3 37.9
04:40 1027 30.33 856 25.28 12.7 54.9 53 3.6 38.4
04:45 1027 30.33 856 25.28 12.4 54.3 54 3.4 38.1
04:50 1027 30.33 856 25.28 12.3 54.2 54 3.3 37.9
04:55 1027 30.33 856 25.28 12.2 54 55 3.4 38.2
05:00 1027 30.33 856 25.28 12.1 53.9 54 3.3 37.9
05:05 1027 30.33 856 25.28 12.3 54.1 54 3.3 37.9
05:10 1027 30.33 856 25.28 12.3 54.1 54 3.4 38.1
05:15 1027 30.33 856 25.28 12 53.6 56 3.5 38.4
05:20 1027 30.33 856 25.28 12.1 53.7 55 3.4 38.2
05:25 1027 30.33 856 25.28 12 53.7 55 3.3 38
05:30 1027 30.33 856 25.28 12 53.7 56 3.5 38.3
05:35 1027 30.33 856 25.28 12 53.6 56 3.5 38.2
05:40 1027 30.33 856 25.28 11.9 53.4 56 3.4 38.1
05:45 1027 30.33 856 25.28 11.9 53.4 55 3.2 37.8
05:50 1027 30.33 856 25.28 12 53.6 55 3.3 38
05:55 1027 30.33 856 25.28 12 53.7 54 3.2 37.7
06:00 1027 30.33 856 25.28 12.3 54.1 54 3.4 38.1
06:05 1027 30.33 856 25.28 12.5 54.4 54 3.4 38
06:10 1027 30.33 856 25.28 12.7 54.8 54 3.6 38.4
06:15 1027 30.33 856 25.28 12.8 55 53 3.6 38.4
06:20 1027 30.33 856 25.28 12.9 55.3 53 3.7 38.7
06:25 1027 30.33 856 25.28 13.2 55.7 52 3.7 38.6
06:30 1027 30.33 856 25.28 13.5 56.4 51 3.6 38.5
06:35 1027 30.33 856 25.28 13.7 56.6 51 3.7 38.7
06:40 1027 30.33 856 25.28 13.6 56.6 50 3.5 38.4
06:45 1027 30.33 856 25.28 13.9 57 50 3.6 38.5
06:50 1027 30.33 856 25.28 14.2 57.5 50 4 39.3
06:55 1027 30.33 856 25.28 14.6 58.3 49 4 39.3
07:00 1027 30.33 856 25.28 15 59.1 48 4.2 39.5
07:05 1027 30.33 856 25.28 15.5 59.8 45 3.8 38.8
07:10 1027 30.33 856 25.28 15.8 60.4 47 4.5 40.1
07:15 1027 30.33 856 25.28 15.9 60.6 44 3.9 39
07:20 1027 30.33 856 25.28 16.2 61.1 46 4.6 40.2
07:25 1027 30.33 856 25.28 16.6 61.8 44 4.5 40.1
07:30 1027 30.33 856 25.28 17.6 63.6 41 4.2 39.5
07:35 1027 30.33 856 25.28 18.4 65.2 39 4.3 39.8
07:40 1027 30.33 856 25.28 18.6 65.5 37 3.7 38.6
07:45 1027 30.33 856 25.28 19 66.2 35 3.2 37.8
07:50 1027 30.33 856 25.28 19 66.2 36 3.8 38.8
07:55 1027 30.33 856 25.28 19.3 66.8 34 3.1 37.5
08:00 1027 30.33 856 25.28 19.3 66.7 35 3.6 38.5
08:05 1027 30.33 856 25.28 19.3 66.7 37 4.3 39.7
08:10 1027 30.33 856 25.28 19.6 67.3 35 3.7 38.7
08:15 1027 30.33 856 25.28 19 66.1 37 3.9 39.1
08:20 1027 30.33 856 25.28 19.3 66.7 35 3.6 38.6
08:25 1027 30.33 856 25.28 19.8 67.6 35 3.9 39
08:30 1027 30.33 856 25.28 20.5 69 32 3.5 38.4
08:35 1027 30.33 856 25.28 20.1 68.2 34 4.1 39.3
08:40 1027 30.33 856 25.28 20.2 68.3 31 2.6 36.7
08:45 1027 30.33 856 25.28 20.5 68.9 31 3.1 37.7
08:50 1027 30.33 856 25.28 21 69.8 30 3 37.5
08:55 1027 30.33 856 25.28 21.7 71 30 3.4 38.1
09:00 1027 30.33 856 25.28 22.1 71.7 29 3.3 37.9
09:05 1027 30.33 856 25.28 22.4 72.2 28 3.4 38.1
09:10 1027 30.33 856 25.28 22.6 72.6 28 3.2 37.7
09:15 1027 30.33 856 25.28 22.1 71.8 30 3.7 38.6
09:20 1027 30.33 856 25.28 21.7 71 29 3.3 37.9
09:25 1027 30.33 856 25.28 22.1 71.7 29 3.4 38.2
09:30 1027 30.33 856 25.28 22.4 72.3 30 4.1 39.4
09:35 1027 30.33 856 25.28 22.5 72.5 30 4.1 39.4
09:40 1027 30.33 856 25.28 22.7 72.9 31 4.8 40.6
09:45 1027 30.33 856 25.28 22.4 72.3 30 4.3 39.8
09:50 1027 30.33 856 25.28 22.3 72.1 31 4.6 40.3
09:55 1027 30.33 856 25.28 22.4 72.4 31 4.8 40.7
10:00 1027 30.33 856 25.28 22.7 72.8 30 4.3 39.8
10:05 1027 30.33 856 25.28 23.6 74.6 28 4.5 40.1
10:10 1027 30.33 856 25.28 23.6 74.5 29 4.6 40.3
10:15 1027 30.33 856 25.28 22.5 72.5 29 3.9 39
10:20 1027 30.33 856 25.28 23.3 74 28 4.1 39.4
10:25 1027 30.33 856 25.28 23 73.4 29 4.4 40
10:30 1027 30.33 856 25.28 23.4 74.1 26 3.2 37.8
10:35 1027 30.33 856 25.28 23.9 75 27 4 39.3
10:40 1027 30.33 856 25.28 24.5 76 26 4.1 39.4
10:45 1027 30.33 856 25.28 24.4 75.9 28 5 40.9
10:50 1027 30.33 856 25.28 24.7 76.5 26 4.3 39.8
10:55 1027 30.33 856 25.28 25 77 25 3.8 38.9
11:00 1027 30.33 856 25.28 25.2 77.3 24 3.7 38.6
11:05 1027 30.33 856 25.28 25.5 77.8 25 4 39.2
11:10 1026 30.3 856 25.28 25.3 77.5 21 1.4 34.5
11:15 1026 30.3 856 25.28 26 78.7 19 1.2 34.1
11:20 1026 30.3 856 25.28 26.4 79.5 18 0.2 32.3
11:25 1026 30.3 855 25.25 26.5 79.7 17 -0.1 31.9
11:30 1026 30.3 855 25.25 26.6 79.9 15 -1.4 29.4
11:35 1026 30.3 855 25.25 25.6 78.2 16 -1.9 28.6
11:40 1026 30.3 855 25.25 24.3 75.8 18 -1.5 29.4
11:45 1026 30.3 855 25.25 25.2 77.3 15 -2.8 26.9
11:50 1026 30.3 855 25.25 24.8 76.7 18 -0.5 31.1
11:55 1026 30.3 855 25.25 25.5 77.8 17 -1.3 29.7
12:00 1026 30.3 855 25.25 25.8 78.4 18 -0 31.9
12:05 1026 30.3 855 25.25 25.7 78.3 18 0.1 32.3
12:10 1026 30.3 855 25.25 26.3 79.3 15 -2 28.5
12:15 1026 30.3 855 25.25 26.7 80.1 15 -1.4 29.4
12:20 1026 30.3 855 25.25 26.8 80.2 15 -1.7 28.9
12:25 1026 30.3 855 25.25 26.6 79.9 16 -1.3 29.7
12:30 1026 30.3 855 25.25 26.3 79.4 15 -1.9 28.5
12:35 1026 30.3 855 25.25 25.3 77.6 15 -2.5 27.5
12:40 1026 30.3 855 25.25 26.2 79.2 17 -0.7 30.8
12:45 1026 30.3 855 25.25 26 78.7 17 -0.4 31.3
12:50 1026 30.3 855 25.25 25.9 78.5 17 -0.8 30.5
12:55 1026 30.3 855 25.25 26.6 79.9 16 -1.1 30
13:00 1026 30.3 855 25.25 26.3 79.4 17 -0.2 31.7
13:05 1026 30.3 855 25.25 25.9 78.6 17 -0.6 30.8
13:10 1026 30.3 855 25.25 25.5 77.9 18 -0.5 31.1
13:15 1026 30.3 855 25.25 26.2 79.1 16 -1.2 29.8
13:20 1025 30.27 855 25.25 26.1 78.9 17 -0.8 30.5
13:25 1025 30.27 855 25.25 26.4 79.4 16 -1.3 29.6
13:30 1025 30.27 855 25.25 26.7 80.1 15 -2 28.5
13:35 1025 30.27 855 25.25 26.5 79.7 15 -1.6 29.1
13:40 1025 30.27 854 25.22 26.6 79.8 15 -1.9 28.5
13:45 1025 30.27 854 25.22 27 80.6 15 -1.2 29.9
13:50 1025 30.27 854 25.22 27.9 82.2 15 -0.8 30.5
13:55 1025 30.27 854 25.22 27.6 81.7 15 -0.7 30.7
14:00 1025 30.27 854 25.22 28 82.3 15 -1 30.1
14:05 1025 30.27 854 25.22 28.3 82.9 15 -0.5 31.1
14:10 1025 30.27 854 25.22 28 82.4 15 -0.5 31.1
14:15 1025 30.27 854 25.22 27.9 82.2 15 -1 30.2
14:20 1025 30.27 854 25.22 26.9 80.4 17 0 32
14:25 1025 30.27 854 25.22 27.4 81.3 15 -0.9 30.5
14:30 1025 30.27 854 25.22 28.1 82.5 15 -0.7 30.7
14:35 1025 30.27 854 25.22 28.2 82.7 15 -0.4 31.3
14:40 1025 30.27 854 25.22 27.9 82.1 17 0.9 33.6
14:45 1025 30.27 854 25.22 27.7 81.9 16 -0.2 31.6
14:50 1025 30.27 854 25.22 27.6 81.7 15 -0.7 30.7
14:55 1025 30.27 854 25.22 27 80.5 19 1.8 35.2
15:00 1025 30.27 854 25.22 27.8 82 15 -0.8 30.5
15:05 1025 30.27 854 25.22 28.4 83.1 15 -0.2 31.6
15:10 1025 30.27 854 25.22 28.3 83 15 -0.2 31.6
15:15 1024 30.24 854 25.22 28.5 83.3 15 -0.1 31.9
15:20 1024 30.24 854 25.22 28.5 83.3 15 -0.6 30.9
15:25 1024 30.24 854 25.22 28.3 83 17 1.1 33.9
15:30 1024 30.24 854 25.22 27.5 81.6 15 -0.9 30.3
15:35 1024 30.24 854 25.22 27.8 82.1 16 -0.4 31.3
15:40 1024 30.24 854 25.22 28.2 82.8 15 -0.2 31.7
15:45 1024 30.24 853 25.19 28.2 82.8 15 -0.7 30.8
15:50 1024 30.24 853 25.19 28 82.5 16 0.3 32.6
15:55 1024 30.24 853 25.19 27.9 82.3 15 -0.8 30.6
16:00 1024 30.24 853 25.19 28.5 83.2 15 -0.1 31.8
16:05 1024 30.24 853 25.19 29 84.1 15 -0.2 31.7
16:10 1024 30.24 853 25.19 28.6 83.4 15 0.1 32.1
16:15 1024 30.24 853 25.19 27 80.6 17 -0.2 31.6
16:20 1024 30.24 853 25.19 27.3 81.1 17 0.5 32.9
16:25 1024 30.24 853 25.19 27.6 81.6 16 0.1 32.1
16:30 1024 30.24 853 25.19 28 82.3 15 -0.4 31.2
16:35 1024 30.24 853 25.19 27.7 81.8 17 0.4 32.7
16:40 1024 30.24 853 25.19 26.9 80.4 16 -0.7 30.7
16:45 1024 30.24 853 25.19 27.3 81.1 16 -0.2 31.7
16:50 1024 30.24 853 25.19 27.5 81.5 15 -1.1 30.1
16:55 1024 30.24 853 25.19 27 80.5 17 -0 31.9
17:00 1024 30.24 853 25.19 27.3 81.1 15 -1 30.2
17:05 1024 30.24 853 25.19 27.4 81.2 15 -1 30.1
17:10 1024 30.24 853 25.19 27.1 80.7 16 -0.8 30.6
17:15 1024 30.24 853 25.19 27.2 81 16 -0.9 30.5
17:20 1024 30.24 853 25.19 27 80.6 17 -0.2 31.6
17:25 1024 30.24 853 25.19 27.1 80.7 16 -1 30.2
17:30 1024 30.24 853 25.19 27.3 81.1 16 -0.7 30.7
17:35 1024 30.24 853 25.19 27.1 80.7 17 0.2 32.3
17:40 1023 30.21 853 25.19 27 80.5 16 -0.5 31.1
17:45 1023 30.21 853 25.19 26.6 79.9 19 1.2 34.2
17:50 1023 30.21 853 25.19 26.7 80.1 17 -0.5 31.2
17:55 1023 30.21 853 25.19 27.2 81 15 -1.2 29.9
18:00 1023 30.21 853 25.19 27.7 81.9 15 -0.9 30.4
18:05 1023 30.21 853 25.19 27.2 81 16 -0.6 30.9
18:10 1023 30.21 853 25.19 26.8 80.2 17 0 32
18:15 1023 30.21 852 25.16 26.5 79.8 17 0.1 32.2
18:20 1023 30.21 853 25.19 26.5 79.6 17 0 32
18:25 1023 30.21 852 25.16 26.4 79.5 16 -0.8 30.5
18:30 1023 30.21 852 25.16 26.3 79.3 17 -0.7 30.8
18:35 1023 30.21 853 25.19 26.2 79.1 18 0.1 32.1
18:40 1023 30.21 852 25.16 26.1 79 17 -0.8 30.5
18:45 1023 30.21 852 25.16 26.1 78.9 17 -0.5 31.1
18:50 1023 30.21 852 25.16 26 78.8 17 -0.5 31.2
18:55 1023 30.21 852 25.16 26 78.7 18 -0.3 31.5
19:00 1023 30.21 852 25.16 25.9 78.5 19 0.7 33.2
19:05 1023 30.21 852 25.16 25.8 78.4 19 1 33.8
19:10 1023 30.21 852 25.16 25.7 78.3 21 2 35.6
19:15 1023 30.21 852 25.16 25.5 77.9 23 3.1 37.6
19:20 1023 30.21 852 25.16 25.3 77.5 26 4.7 40.5
19:25 1023 30.21 852 25.16 25.1 77.3 28 5.5 41.8
19:30 1023 30.21 852 25.16 24.9 76.8 30 6.2 43.1
19:35 1023 30.21 852 25.16 24.5 76.1 31 6.7 44.1
19:40 1023 30.21 852 25.16 24.1 75.3 34 7.6 45.8
19:45 1023 30.21 852 25.16 23.5 74.3 34 6.9 44.4
19:50 1023 30.21 852 25.16 23.1 73.6 35 7.1 44.8
19:55 1023 30.21 853 25.19 22.6 72.6 35 6.7 44.1
20:00 1023 30.21 853 25.19 21.8 71.3 37 6.8 44.2
20:05 1023 30.21 853 25.19 21.3 70.3 39 6.8 44.2
20:10 1023 30.21 853 25.19 21 69.9 36 5.5 41.8
20:15 1023 30.21 853 25.19 20.4 68.8 43 7.6 45.7
20:20 1023 30.21 853 25.19 19.7 67.4 41 6.3 43.3
20:25 1023 30.21 853 25.19 19.5 67.1 42 6.5 43.6
20:30 1024 30.24 853 25.19 19.2 66.6 36 4 39.2
20:35 1024 30.24 853 25.19 19.4 66.9 36 3.9 39.1
20:40 1024 30.24 853 25.19 19.5 67.1 36 4.1 39.3
20:45 1024 30.24 853 25.19 19.1 66.4 36 3.9 39
20:50 1024 30.24 853 25.19 18.9 65.9 36 3.6 38.5
20:55 1024 30.24 853 25.19 18.8 65.8 35 3.1 37.5
21:00 1024 30.24 853 25.19 18.9 65.9 35 3.1 37.6
21:05 1024 30.24 853 25.19 18.8 65.9 34 2.8 37
21:10 1024 30.24 853 25.19 18.8 65.8 34 2.8 37
21:15 1024 30.24 853 25.19 18.8 65.8 34 2.8 37
21:20 1024 30.24 853 25.19 18.7 65.7 34 2.8 37
21:25 1024 30.24 853 25.19 18.9 65.9 33 2.6 36.7
21:30 1024 30.24 853 25.19 18.7 65.6 36 3.4 38.1
21:35 1024 30.24 853 25.19 18 64.3 37 3.1 37.6
21:40 1024 30.24 853 25.19 17.7 63.8 37 2.9 37.2
21:45 1024 30.24 853 25.19 17.7 63.8 37 3 37.4
21:50 1024 30.24 853 25.19 17.5 63.5 37 2.9 37.2
21:55 1024 30.24 853 25.19 17.5 63.5 36 2.5 36.5
22:00 1023 30.21 853 25.19 17.3 63.2 37 2.7 36.9
22:05 1023 30.21 853 25.19 17.2 62.9 36 2.2 36
22:10 1023 30.21 853 25.19 17.5 63.5 35 2.1 35.8
22:15 1023 30.21 853 25.19 17.8 64 33 1.5 34.8
22:20 1023 30.21 853 25.19 18.1 64.5 34 1.9 35.4
22:25 1023 30.21 853 25.19 17.8 64 36 2.4 36.4
22:30 1023 30.21 853 25.19 17.2 62.9 36 2.2 35.9
22:35 1023 30.21 853 25.19 17 62.7 37 2.5 36.5
22:40 1023 30.21 853 25.19 16.7 62.1 38 2.5 36.5
22:45 1023 30.21 853 25.19 16.6 62 38 2.4 36.3
22:50 1023 30.21 853 25.19 16.5 61.7 38 2.4 36.2
22:55 1023 30.21 853 25.19 16.4 61.6 38 2.2 36
23:00 1023 30.21 853 25.19 16.4 61.5 38 2.2 36
23:05 1023 30.21 853 25.19 16.4 61.4 38 2.2 35.9
23:10 1023 30.21 853 25.19 16.4 61.5 37 1.9 35.5
23:15 1024 30.24 853 25.19 16.5 61.6 37 1.8 35.2
23:20 1024 30.24 853 25.19 16.6 62 36 1.7 35.1
23:25 1024 30.24 853 25.19 16.6 62 36 1.7 35.1
23:30 1024 30.24 853 25.19 16.6 61.8 36 1.7 35
23:35 1024 30.24 853 25.19 16.5 61.6 37 1.8 35.2
23:40 1024 30.24 853 25.19 16.3 61.4 38 1.9 35.5
23:45 1024 30.24 853 25.19 16.3 61.3 38 2 35.6
23:50 1024 30.24 853 25.19 16.3 61.4 38 2.2 35.9
23:55 1024 30.24 853 25.19 16.2 61.2 38 1.8 35.3
24:00 1024 30.24 853 25.19 16.4 61.5 37 1.7 35